Data for 07/18/2017

Time Sea-Level Adjusted Pressure Absolute Pressure Temperature Relative Humidity Dew Point   
(mb) (inHg) (mb) (inHg) (C) (F) (%) (C) (F)
00:05 1020 30.12 849 25.07 16.7 62 52 6.7 44.1
00:10 1020 30.12 849 25.07 16.7 62.1 51 6.7 44.1
00:15 1020 30.12 849 25.07 16.9 62.5 51 6.8 44.2
00:20 1020 30.12 849 25.07 16.9 62.4 50 6.7 44
00:25 1020 30.12 849 25.07 16.9 62.5 49 6.4 43.5
00:30 1020 30.12 849 25.07 17 62.6 50 6.5 43.7
00:35 1020 30.12 849 25.07 16.7 62.1 51 6.6 43.8
00:40 1020 30.12 849 25.07 16.4 61.6 52 6.7 44
00:45 1020 30.12 849 25.07 16.2 61.2 53 6.6 43.9
00:50 1020 30.12 849 25.07 16 60.8 52 6.2 43.2
00:55 1020 30.12 849 25.07 16.1 60.9 53 6.5 43.7
01:00 1020 30.12 850 25.1 15.9 60.6 53 6.4 43.6
01:05 1020 30.12 850 25.1 15.8 60.5 53 6.4 43.5
01:10 1020 30.12 849 25.07 15.7 60.2 52 6 42.7
01:15 1020 30.12 849 25.07 15.5 60 53 6.1 43
01:20 1020 30.12 849 25.07 15.5 59.9 50 5.3 41.5
01:25 1020 30.12 849 25.07 15.9 60.6 50 5.5 41.9
01:30 1020 30.12 849 25.07 16 60.8 50 5.8 42.4
01:35 1020 30.12 849 25.07 15.6 60.2 52 5.8 42.5
01:40 1020 30.12 849 25.07 15.2 59.4 54 6 42.7
01:45 1020 30.12 849 25.07 15.1 59.2 52 5.5 41.9
01:50 1020 30.12 849 25.07 15 58.9 54 5.8 42.4
01:55 1020 30.12 849 25.07 14.6 58.2 56 6 42.8
02:00 1020 30.12 850 25.1 14.2 57.6 57 5.9 42.7
02:05 1020 30.12 850 25.1 14 57.2 57 5.8 42.4
02:10 1020 30.12 850 25.1 13.9 57 59 6.1 43
02:15 1020 30.12 849 25.07 13.4 56.2 60 5.9 42.5
02:20 1020 30.12 849 25.07 13.2 55.7 59 5.4 41.7
02:25 1020 30.12 849 25.07 13.2 55.7 58 5.2 41.3
02:30 1020 30.12 849 25.07 13.2 55.8 55 4.4 39.8
02:35 1020 30.12 849 25.07 13.5 56.3 56 5 41
02:40 1020 30.12 850 25.1 13.4 56.1 54 4.3 39.7
02:45 1020 30.12 849 25.07 13.4 56.1 57 5.2 41.4
02:50 1020 30.12 850 25.1 13 55.3 58 4.9 40.9
02:55 1020 30.12 850 25.1 13 55.4 58 5 41
03:00 1020 30.12 850 25.1 13.1 55.5 59 5.2 41.3
03:05 1020 30.12 850 25.1 13 55.4 61 5.7 42.2
03:10 1020 30.12 850 25.1 12.9 55.3 62 5.8 42.5
03:15 1020 30.12 850 25.1 13.1 55.6 60 5.5 41.9
03:20 1020 30.12 850 25.1 13.5 56.3 59 5.7 42.3
03:25 1020 30.12 850 25.1 13.7 56.6 58 5.7 42.2
03:30 1020 30.12 850 25.1 13.5 56.2 57 5.2 41.3
03:35 1021 30.15 850 25.1 13.6 56.4 54 4.5 40.2
03:40 1021 30.15 850 25.1 13.9 57 52 4.4 39.8
03:45 1021 30.15 850 25.1 14.1 57.3 52 4.5 40
03:50 1021 30.15 850 25.1 14 57.1 53 4.7 40.4
03:55 1021 30.15 850 25.1 13.7 56.7 54 4.8 40.6
04:00 1021 30.15 850 25.1 13.6 56.5 56 5.1 41.1
04:05 1021 30.15 850 25.1 13.4 56.2 57 5.2 41.4
04:10 1021 30.15 850 25.1 13.4 56.1 54 4.5 40
04:15 1021 30.15 850 25.1 13.7 56.7 51 3.9 39.1
04:20 1021 30.15 850 25.1 13.9 57.1 49 3.6 38.5
04:25 1021 30.15 850 25.1 14.1 57.4 46 2.9 37.2
04:30 1021 30.15 850 25.1 14.4 58 50 4.3 39.7
04:35 1021 30.15 850 25.1 14 57.1 55 5.1 41.2
04:40 1021 30.15 850 25.1 13.7 56.7 55 4.9 40.8
04:45 1021 30.15 850 25.1 13.5 56.2 54 4.5 40.1
04:50 1021 30.15 850 25.1 13 55.4 56 4.6 40.3
04:55 1021 30.15 850 25.1 12.5 54.5 60 5.1 41.2
05:00 1021 30.15 850 25.1 12.3 54.2 60 4.9 40.9
05:05 1021 30.15 850 25.1 12.1 53.9 60 4.8 40.6
05:10 1021 30.15 850 25.1 12.4 54.4 58 4.5 40.2
05:15 1021 30.15 850 25.1 12.6 54.6 58 4.6 40.2
05:20 1021 30.15 850 25.1 12.5 54.5 59 4.8 40.6
05:25 1021 30.15 850 25.1 12.5 54.5 60 5 41
05:30 1021 30.15 850 25.1 12.5 54.5 60 5 41
05:35 1021 30.15 850 25.1 12.6 54.6 59 4.9 40.8
05:40 1021 30.15 850 25.1 12.8 55 58 4.7 40.5
05:45 1021 30.15 850 25.1 13 55.4 58 4.9 40.8
05:50 1021 30.15 850 25.1 12.9 55.3 57 4.7 40.5
05:55 1021 30.15 850 25.1 13 55.4 55 4.3 39.7
06:00 1021 30.15 850 25.1 13.3 55.9 53 4.1 39.4
06:05 1021 30.15 850 25.1 13.5 56.3 52 4 39.1
06:10 1021 30.15 850 25.1 13.4 56.2 53 4 39.2
06:15 1021 30.15 850 25.1 13.3 56 53 4 39.2
06:20 1021 30.15 850 25.1 13.2 55.7 53 3.9 39
06:25 1021 30.15 850 25.1 13.1 55.7 54 4.1 39.3
06:30 1021 30.15 850 25.1 13.1 55.6 54 4.2 39.5
06:35 1021 30.15 850 25.1 13.1 55.5 55 4.3 39.7
06:40 1021 30.15 851 25.13 13.2 55.8 55 4.5 40
06:45 1021 30.15 851 25.13 13.4 56.2 54 4.5 40.1
06:50 1021 30.15 851 25.13 13.6 56.4 54 4.5 40.1
06:55 1021 30.15 851 25.13 13.8 56.8 54 4.7 40.4
07:00 1022 30.18 851 25.13 14 57.3 54 4.9 40.8
07:05 1022 30.18 851 25.13 14.2 57.6 54 5.1 41.1
07:10 1022 30.18 851 25.13 14.4 57.9 53 5.2 41.3
07:15 1022 30.18 851 25.13 14.5 58.1 54 5.4 41.8
07:20 1022 30.18 851 25.13 14.7 58.4 52 5 41
07:25 1022 30.18 851 25.13 15 59.1 48 4.1 39.4
07:30 1022 30.18 851 25.13 15.6 60 48 4.8 40.6
07:35 1022 30.18 851 25.13 15.9 60.5 45 4 39.1
07:40 1022 30.18 851 25.13 16.2 61.1 44 3.9 39
07:45 1022 30.18 851 25.13 16.4 61.5 42 3.7 38.6
07:50 1022 30.18 851 25.13 16.5 61.6 43 4 39.2
07:55 1022 30.18 851 25.13 16.6 61.9 44 4.4 39.9
08:00 1022 30.18 851 25.13 16.5 61.7 43 4.1 39.4
08:05 1022 30.18 851 25.13 17 62.7 44 4.7 40.5
08:10 1022 30.18 851 25.13 17.6 63.8 46 6 42.9
08:15 1022 30.18 851 25.13 17.9 64.2 49 7 44.6
08:20 1022 30.18 851 25.13 17.9 64.1 47 6.4 43.5
08:25 1022 30.18 851 25.13 18 64.3 46 6.3 43.4
08:30 1022 30.18 851 25.13 18.1 64.6 46 6.4 43.6
08:35 1022 30.18 851 25.13 18.2 64.8 46 6.5 43.7
08:40 1022 30.18 851 25.13 18.2 64.7 46 6.6 43.8
08:45 1022 30.18 851 25.13 18.9 66 42 5.9 42.6
08:50 1022 30.18 851 25.13 19 66.2 42 6 42.9
08:55 1022 30.18 851 25.13 19.7 67.5 38 5.3 41.6
09:00 1022 30.18 851 25.13 19.9 67.9 38 5.5 41.9
09:05 1022 30.18 851 25.13 20.4 68.7 38 5.7 42.3
09:10 1022 30.18 851 25.13 20.6 69 38 6 42.9
09:15 1022 30.18 851 25.13 20.9 69.7 36 5.4 41.8
09:20 1022 30.18 851 25.13 21.2 70.2 35 5.2 41.4
09:25 1022 30.18 851 25.13 20.8 69.4 36 5.2 41.4
09:30 1022 30.18 851 25.13 21 69.8 35 5.2 41.4
09:35 1022 30.18 851 25.13 21.5 70.6 35 5.6 42
09:40 1022 30.18 851 25.13 21.7 71.1 34 5.2 41.4
09:45 1022 30.18 851 25.13 21.4 70.6 36 5.9 42.7
09:50 1022 30.18 851 25.13 21.1 70.1 33 4.2 39.6
09:55 1022 30.18 851 25.13 21.9 71.3 30 3.8 38.8
10:00 1022 30.18 851 25.13 21.8 71.3 31 4.1 39.4
10:05 1022 30.18 851 25.13 22.1 71.8 31 4.6 40.2
10:10 1022 30.18 851 25.13 21.9 71.5 32 4.8 40.7
10:15 1022 30.18 851 25.13 22.2 72 30 4 39.2
10:20 1022 30.18 851 25.13 22.4 72.4 31 4.7 40.5
10:25 1022 30.18 851 25.13 22.3 72.1 31 4.5 40.1
10:30 1022 30.18 851 25.13 22.5 72.5 32 5.3 41.5
10:35 1022 30.18 851 25.13 23.1 73.6 31 5.3 41.5
10:40 1022 30.18 851 25.13 23.6 74.6 31 5.8 42.5
10:45 1022 30.18 851 25.13 23.6 74.5 33 6.6 43.9
10:50 1022 30.18 851 25.13 23.2 73.7 33 6.4 43.6
10:55 1022 30.18 851 25.13 23.2 73.8 33 6.4 43.5
11:00 1022 30.18 851 25.13 23.4 74 34 7 44.5
11:05 1022 30.18 851 25.13 22.4 72.3 36 6.8 44.2
11:10 1022 30.18 851 25.13 23.1 73.6 33 6.1 43
11:15 1022 30.18 851 25.13 22.9 73.1 34 6.3 43.4
11:20 1022 30.18 851 25.13 23.1 73.6 32 5.9 42.7
11:25 1022 30.18 851 25.13 24.7 76.4 32 7.2 44.9
11:30 1021 30.15 851 25.13 24.9 76.9 31 6.7 44.1
11:35 1021 30.15 851 25.13 24.5 76.1 31 6.6 44
11:40 1021 30.15 851 25.13 25 77 30 6.6 44
11:45 1021 30.15 851 25.13 25.8 78.4 29 6.6 43.9
11:50 1021 30.15 851 25.13 25.9 78.6 29 6.6 43.8
11:55 1021 30.15 851 25.13 26 78.8 29 6.9 44.4
12:00 1021 30.15 851 25.13 25.6 78 29 6.5 43.6
12:05 1021 30.15 851 25.13 25.5 77.9 28 6.1 42.9
12:10 1021 30.15 851 25.13 25 76.9 30 6.4 43.5
12:15 1021 30.15 850 25.1 25.5 78 29 6.4 43.5
12:20 1021 30.15 850 25.1 26.1 78.9 27 5.9 42.5
12:25 1021 30.15 850 25.1 25.5 77.8 29 6.5 43.7
12:30 1021 30.15 850 25.1 24.8 76.6 28 5.3 41.6
12:35 1021 30.15 850 25.1 24.4 76 30 6 42.7
12:40 1021 30.15 850 25.1 24.9 76.9 28 5.3 41.5
12:45 1021 30.15 850 25.1 26.1 79 26 5.4 41.8
12:50 1021 30.15 850 25.1 26.7 80.1 25 5.3 41.5
12:55 1021 30.15 850 25.1 27.1 80.8 24 4.9 40.8
13:00 1021 30.15 850 25.1 27.4 81.2 23 5 41
13:05 1021 30.15 850 25.1 27.2 81 22 4.2 39.5
13:10 1021 30.15 850 25.1 27.4 81.4 23 4.9 40.9
13:15 1021 30.15 850 25.1 27.6 81.8 22 4.2 39.5
13:20 1021 30.15 850 25.1 28.5 83.3 21 4.4 39.9
13:25 1021 30.15 850 25.1 28.1 82.5 20 3.4 38.1
13:30 1021 30.15 850 25.1 28.5 83.3 14 -1.5 29.3
13:35 1021 30.15 850 25.1 28.6 83.6 15 -0.2 31.6
13:40 1021 30.15 850 25.1 27.5 81.5 15 -1.4 29.5
13:45 1021 30.15 850 25.1 27 80.7 15 -1.4 29.5
13:50 1021 30.15 850 25.1 27.8 82.1 15 -0.8 30.6
13:55 1021 30.15 850 25.1 28.5 83.3 13 -2 28.4
14:00 1021 30.15 850 25.1 29 84.2 14 -0.5 31
14:05 1021 30.15 850 25.1 28.4 83.1 13 -1.9 28.5
14:10 1021 30.15 850 25.1 27.7 81.9 14 -1.9 28.5
14:15 1020 30.12 850 25.1 27.9 82.1 14 -2.1 28.2
14:20 1020 30.12 850 25.1 27.6 81.7 13 -2.7 27.1
14:25 1020 30.12 849 25.07 27.6 81.7 13 -2.6 27.3
14:30 1020 30.12 849 25.07 28.9 84 13 -1.8 28.7
14:35 1020 30.12 849 25.07 29.5 85.1 12 -2.6 27.4
14:40 1020 30.12 849 25.07 29.8 85.7 12 -2.1 28.2
14:45 1020 30.12 849 25.07 29.4 84.8 13 -2.1 28.3
14:50 1020 30.12 849 25.07 29.1 84.4 12 -2.4 27.7
14:55 1020 30.12 849 25.07 28.2 82.8 13 -2.5 27.4
15:00 1020 30.12 849 25.07 28.9 84.1 12 -2.8 27
15:05 1020 30.12 849 25.07 29.4 84.8 12 -2.5 27.5
15:10 1020 30.12 849 25.07 28.7 83.7 13 -2.5 27.6
15:15 1020 30.12 849 25.07 29.6 85.3 12 -2.2 28
15:20 1020 30.12 849 25.07 29.2 84.5 13 -2 28.4
15:25 1020 30.12 849 25.07 29.5 85 12 -2.4 27.6
15:30 1020 30.12 849 25.07 30.1 86.1 12 -2.3 27.9
15:35 1020 30.12 849 25.07 30.1 86.2 12 -2.5 27.4
15:40 1020 30.12 849 25.07 30.5 86.8 12 -2 28.5
15:45 1020 30.12 849 25.07 30.4 86.8 12 -1.7 28.9
15:50 1020 30.12 849 25.07 30.7 87.3 11 -2.8 27
15:55 1019 30.09 849 25.07 30.3 86.5 13 -1.1 30.1
16:00 1019 30.09 849 25.07 29.3 84.7 12 -2.6 27.2
16:05 1019 30.09 849 25.07 29.4 84.9 13 -1.7 28.9
16:10 1019 30.09 848 25.04 30.1 86.3 12 -1.9 28.6
16:15 1019 30.09 848 25.04 29.5 85.1 12 -2.1 28.3
16:20 1019 30.09 848 25.04 30.2 86.4 12 -2.1 28.3
16:25 1019 30.09 848 25.04 29.9 85.9 13 -1.3 29.7
16:30 1019 30.09 848 25.04 30.1 86.2 12 -1.6 29.1
16:35 1019 30.09 848 25.04 30.6 87.2 12 -1.2 29.8
16:40 1019 30.09 848 25.04 30.4 86.7 12 -1.5 29.4
16:45 1019 30.09 848 25.04 29.5 85.2 13 -1.9 28.6
16:50 1019 30.09 848 25.04 29.5 85 15 0.2 32.3
16:55 1019 30.09 848 25.04 29.3 84.7 14 -0.8 30.6
17:00 1019 30.09 848 25.04 30 85.9 13 -1.3 29.6
17:05 1019 30.09 848 25.04 30.3 86.5 13 -1.1 30.1
17:10 1019 30.09 848 25.04 30 85.9 14 -0.5 31.1
17:15 1019 30.09 848 25.04 29.8 85.6 13 -1.7 28.9
17:20 1019 30.09 848 25.04 29.6 85.3 13 -1.7 28.9
17:25 1019 30.09 848 25.04 30.4 86.7 12 -1.3 29.6
17:30 1019 30.09 848 25.04 30.9 87.7 13 -0.5 31.2
17:35 1019 30.09 848 25.04 30.4 86.8 13 -1 30.3
17:40 1019 30.09 848 25.04 30 86 13 -0.8 30.5
17:45 1019 30.09 848 25.04 30.4 86.7 13 -0.7 30.8
17:50 1019 30.09 848 25.04 30.7 87.2 12 -1.3 29.7
17:55 1018 30.06 848 25.04 29.9 85.9 14 -0.1 31.8
18:00 1018 30.06 848 25.04 29.6 85.3 14 -0.6 30.9
18:05 1018 30.06 848 25.04 29.8 85.6 13 -1.2 29.8
18:10 1018 30.06 848 25.04 29.3 84.8 14 -1 30.2
18:15 1018 30.06 848 25.04 29.5 85 13 -1.5 29.3
18:20 1018 30.06 848 25.04 29.5 85.1 13 -1.4 29.5
18:25 1018 30.06 848 25.04 29.2 84.6 13 -1.4 29.5
18:30 1018 30.06 847 25.01 29.3 84.8 13 -1.3 29.7
18:35 1018 30.06 847 25.01 29.8 85.7 13 -1.7 28.9
18:40 1018 30.06 847 25.01 30.4 86.7 13 -0.4 31.3
18:45 1018 30.06 847 25.01 29.9 85.7 14 -0 32
18:50 1018 30.06 847 25.01 29.3 84.8 13 -1.2 29.9
18:55 1018 30.06 847 25.01 29.5 85.1 13 -1 30.2
19:00 1018 30.06 847 25.01 29.4 84.8 14 -0.1 31.7
19:05 1018 30.06 847 25.01 29.3 84.7 14 -1.1 30
19:10 1018 30.06 847 25.01 29.3 84.7 14 -0.4 31.3
19:15 1018 30.06 847 25.01 29.3 84.7 14 -0.5 31.1
19:20 1018 30.06 847 25.01 28.9 84.1 14 -0.5 31
19:25 1018 30.06 847 25.01 28.7 83.6 14 -1.1 30
19:30 1018 30.06 847 25.01 28.6 83.4 15 -0.4 31.3
19:35 1018 30.06 847 25.01 28.5 83.3 15 -0.7 30.7
19:40 1018 30.06 847 25.01 28.4 83 14 -0.9 30.3
19:45 1018 30.06 847 25.01 28.2 82.8 15 -0.7 30.8
19:50 1018 30.06 847 25.01 28.2 82.7 14 -1.2 29.8
19:55 1018 30.06 847 25.01 28.2 82.8 15 -0.5 31
20:00 1018 30.06 847 25.01 28.2 82.7 15 -1 30.2
20:05 1018 30.06 847 25.01 28.1 82.6 15 -0.5 31.1
20:10 1018 30.06 847 25.01 28.1 82.6 16 -0.1 31.9
20:15 1018 30.06 847 25.01 28.1 82.6 17 1.1 34
20:20 1018 30.06 847 25.01 27.9 82.2 18 1.7 35
20:25 1018 30.06 847 25.01 27.7 81.9 19 2.2 36
20:30 1018 30.06 847 25.01 27.5 81.4 20 2.7 36.9
20:35 1018 30.06 847 25.01 27 80.6 21 3.3 37.9
20:40 1018 30.06 847 25.01 26.5 79.6 22 3.3 38
20:45 1018 30.06 847 25.01 26.1 79.1 22 3.2 37.8
20:50 1018 30.06 847 25.01 25.9 78.5 22 2.8 37
20:55 1017 30.03 847 25.01 25.6 78.1 23 3.1 37.7
21:00 1017 30.03 847 25.01 25.2 77.4 24 3.2 37.8
21:05 1017 30.03 847 25.01 24.9 76.7 24 3.2 37.8
21:10 1017 30.03 847 25.01 24.6 76.2 25 3.3 38
21:15 1017 30.03 847 25.01 24.4 75.9 25 3.2 37.7
21:20 1017 30.03 847 25.01 24.3 75.7 25 3 37.5
21:25 1017 30.03 847 25.01 24.2 75.5 25 2.9 37.3
21:30 1017 30.03 846 24.98 24.2 75.6 24 2.5 36.5
21:35 1017 30.03 846 24.98 24.5 76.1 23 2.3 36.1
21:40 1017 30.03 847 25.01 24.6 76.4 23 2.3 36.2
21:45 1017 30.03 847 25.01 24.5 76.2 24 2.9 37.2
21:50 1017 30.03 847 25.01 24.2 75.5 25 2.9 37.3
21:55 1017 30.03 847 25.01 24 75.2 24 2.6 36.8
22:00 1017 30.03 847 25.01 23.9 75.1 24 2.6 36.6
22:05 1017 30.03 847 25.01 23.9 75.1 24 2.5 36.6
22:10 1017 30.03 847 25.01 23.9 75 24 2.6 36.6
22:15 1017 30.03 847 25.01 23.9 75.1 24 2.1 35.8
22:20 1017 30.03 847 25.01 24.2 75.5 24 2.3 36.2
22:25 1017 30.03 847 25.01 24.3 75.7 23 2.3 36.1
22:30 1017 30.03 847 25.01 24.2 75.5 24 2.6 36.7
22:35 1017 30.03 846 24.98 24 75.2 24 2.4 36.4
22:40 1017 30.03 846 24.98 24.2 75.6 23 2.3 36.1
22:45 1017 30.03 846 24.98 24.3 75.7 23 2.3 36.2
22:50 1017 30.03 846 24.98 24.2 75.6 24 2.7 36.9
22:55 1017 30.03 846 24.98 24 75.1 25 2.8 37
23:00 1017 30.03 846 24.98 23.9 75 25 2.8 37
23:05 1017 30.03 846 24.98 23.8 74.9 25 2.9 37.2
23:10 1017 30.03 846 24.98 23.7 74.6 25 2.8 37.1
23:15 1017 30.03 846 24.98 23.6 74.4 26 3 37.5
23:20 1017 30.03 846 24.98 23.3 74 26 3 37.5
23:25 1017 30.03 846 24.98 23.3 73.9 26 3.1 37.5
23:30 1017 30.03 846 24.98 23.2 73.8 27 3.3 38
23:35 1017 30.03 846 24.98 23 73.3 27 3.3 38
23:40 1017 30.03 846 24.98 22.9 73.2 28 3.5 38.4
23:45 1017 30.03 846 24.98 22.9 73.2 28 3.5 38.2
23:50 1017 30.03 846 24.98 22.7 72.9 29 3.9 39
23:55 1017 30.03 846 24.98 22.3 72.1 31 4.4 39.9
24:00 1017 30.03 846 24.98 21.4 70.6 32 4.3 39.7